Time;durP1;ratioP1;P1;durP2;ratioP2;P2;SDS_P1;SDS_P2;PMS_P1;PMS_P2;Temp;Humidity;BMP_temperature;BMP_pressure;BME280_temperature;BME280_humidity;BME280_pressure;Samples;Min_cycle;Max_cycle;Signal;HPM_P1;HPM_P2
2023/10/14 00:01:31;;;;;;;3.10;1.50;;;16.30;99.90;;;;;;5075732;28;20456;-71
2023/10/14 00:04:04;;;;;;;4.97;1.47;;;16.20;99.90;;;;;;5074384;28;20962;-71
2023/10/14 00:06:34;;;;;;;3.83;1.00;;;16.20;99.90;;;;;;5075641;28;20449;-71
2023/10/14 00:09:11;;;;;;;2.77;1.20;;;16.10;99.90;;;;;;5075615;28;20532;-71
2023/10/14 00:11:43;;;;;;;6.37;1.20;;;16.10;99.90;;;;;;5075852;28;20413;-71
2023/10/14 00:14:15;;;;;;;3.77;1.33;;;16.00;99.90;;;;;;5075851;28;20504;-71
2023/10/14 00:16:49;;;;;;;4.50;2.80;;;16.00;99.90;;;;;;5075536;28;20867;-71
2023/10/14 00:19:19;;;;;;;4.33;1.63;;;15.90;99.90;;;;;;5074253;28;20490;-71
2023/10/14 00:21:48;;;;;;;4.50;2.60;;;15.90;99.90;;;;;;5075535;28;20429;-71
2023/10/14 00:24:25;;;;;;;4.40;2.67;;;15.80;99.90;;;;;;5075071;28;20408;-71
2023/10/14 00:26:54;;;;;;;3.03;2.63;;;15.70;99.90;;;;;;5074941;28;20469;-71
2023/10/14 00:29:22;;;;;;;3.73;1.67;;;15.70;99.90;;;;;;5075070;28;20460;-71
2023/10/14 00:31:53;;;;;;;5.17;1.83;;;15.70;99.90;;;;;;5075477;28;20767;-71
2023/10/14 00:34:22;;;;;;;3.50;2.33;;;15.70;99.90;;;;;;5073578;28;20607;-71
2023/10/14 00:36:50;;;;;;;3.63;1.93;;;15.70;99.90;;;;;;5073566;28;20459;-71
2023/10/14 00:39:24;;;;;;;4.53;1.70;;;15.70;99.90;;;;;;5073612;28;20437;-71
2023/10/14 00:41:52;;;;;;;2.90;1.47;;;15.60;99.90;;;;;;5074612;28;20461;-71
2023/10/14 00:44:24;;;;;;;3.13;1.50;;;15.60;99.90;;;;;;5073472;28;20900;-71
2023/10/14 00:46:55;;;;;;;1.70;1.13;;;15.60;99.90;;;;;;5073464;28;20465;-71
2023/10/14 00:49:30;;;;;;;2.10;1.20;;;15.50;99.90;;;;;;5073267;28;20556;-71
2023/10/14 00:52:00;;;;;;;2.50;1.10;;;15.40;99.90;;;;;;5073335;28;20514;-71
2023/10/14 00:54:46;;;;;;;1.77;0.90;;;15.40;99.90;;;;;;5073345;28;20434;-71
2023/10/14 00:57:20;;;;;;;1.77;1.00;;;15.30;99.90;;;;;;5074958;28;20463;-71
2023/10/14 00:59:50;;;;;;;2.00;1.00;;;15.20;99.90;;;;;;5075099;28;20774;-70
2023/10/14 01:02:29;;;;;;;2.37;1.03;;;15.10;99.90;;;;;;5072939;28;20460;-71
2023/10/14 01:05:06;;;;;;;2.50;1.00;;;15.10;99.90;;;;;;5075157;28;20428;-71
2023/10/14 01:07:35;;;;;;;3.17;1.00;;;15.00;99.90;;;;;;5073163;28;20445;-71
2023/10/14 01:10:05;;;;;;;2.10;0.93;;;15.00;99.90;;;;;;5072897;28;20544;-71
2023/10/14 01:12:40;;;;;;;1.60;1.30;;;14.90;99.90;;;;;;5072986;28;20484;-71
2023/10/14 01:15:13;;;;;;;2.10;1.27;;;14.90;99.90;;;;;;5073954;28;20516;-70
2023/10/14 01:17:42;;;;;;;2.10;1.00;;;14.80;99.90;;;;;;5074233;28;20414;-70
2023/10/14 01:20:26;;;;;;;2.63;1.10;;;14.80;99.90;;;;;;5072703;28;20442;-71
2023/10/14 01:22:57;;;;;;;5.20;1.23;;;14.70;99.90;;;;;;5072971;28;20433;-71
2023/10/14 01:25:30;;;;;;;2.43;0.93;;;14.70;99.90;;;;;;5072765;28;20538;-71
2023/10/14 01:27:59;;;;;;;2.73;1.13;;;14.60;99.90;;;;;;5074256;28;20417;-70
2023/10/14 01:30:32;;;;;;;2.20;1.10;;;14.60;99.90;;;;;;5074014;28;20457;-70
2023/10/14 01:33:12;;;;;;;1.90;1.10;;;14.60;99.90;;;;;;5072296;28;20528;-70
2023/10/14 01:35:45;;;;;;;4.50;1.53;;;14.50;99.90;;;;;;5072544;28;20469;-70
2023/10/14 01:38:15;;;;;;;2.10;1.00;;;14.50;99.90;;;;;;5072570;28;20520;-70
2023/10/14 01:40:48;;;;;;;2.53;1.03;;;14.50;99.90;;;;;;5072426;28;20433;-70
2023/10/14 01:43:17;;;;;;;3.73;1.30;;;14.50;99.90;;;;;;5074298;28;20520;-70
2023/10/14 01:45:50;;;;;;;2.70;1.30;;;14.40;99.90;;;;;;5073906;28;20966;-70
2023/10/14 01:48:21;;;;;;;2.47;1.23;;;14.40;99.90;;;;;;5073835;28;20421;-70
2023/10/14 01:50:54;;;;;;;1.97;1.20;;;14.40;99.90;;;;;;5072324;28;21057;-70
2023/10/14 01:53:25;;;;;;;3.70;1.53;;;14.30;99.90;;;;;;5074168;28;20831;-70
2023/10/14 01:55:54;;;;;;;4.33;1.17;;;14.30;99.90;;;;;;5072249;28;20497;-70
2023/10/14 01:58:23;;;;;;;3.10;1.20;;;14.30;99.90;;;;;;5072281;28;20490;-70
2023/10/14 02:00:56;;;;;;;2.77;1.10;;;14.30;99.90;;;;;;5072156;28;20438;-70
2023/10/14 02:03:26;;;;;;;5.30;1.63;;;14.20;99.90;;;;;;5072410;28;20441;-70
2023/10/14 02:05:55;;;;;;;4.03;1.30;;;14.20;99.90;;;;;;5072181;28;20473;-70
2023/10/14 02:08:24;;;;;;;3.63;2.07;;;14.20;99.90;;;;;;5073597;28;20433;-70
2023/10/14 02:10:54;;;;;;;3.73;1.60;;;14.20;99.90;;;;;;5073307;28;20487;-70
2023/10/14 02:13:23;;;;;;;4.00;1.70;;;14.20;99.90;;;;;;5071919;28;20444;-70
2023/10/14 02:15:59;;;;;;;2.47;1.37;;;14.20;99.90;;;;;;5071761;28;20572;-70
2023/10/14 02:18:27;;;;;;;2.90;1.30;;;14.20;99.90;;;;;;5071914;28;20441;-70
2023/10/14 02:21:04;;;;;;;4.03;1.57;;;14.20;99.90;;;;;;5072052;28;20850;-70
2023/10/14 02:23:44;;;;;;;3.60;1.57;;;14.20;99.90;;;;;;5073680;28;20413;-70
2023/10/14 02:26:16;;;;;;;3.43;1.60;;;14.20;99.90;;;;;;5071757;28;20468;-70
2023/10/14 02:28:46;;;;;;;2.73;1.50;;;14.10;99.90;;;;;;5071875;28;21011;-70
2023/10/14 02:31:19;;;;;;;3.37;1.60;;;14.10;99.90;;;;;;5071630;28;20580;-70
2023/10/14 02:33:48;;;;;;;5.00;1.53;;;14.10;99.90;;;;;;5073018;28;20417;-70
2023/10/14 02:36:17;;;;;;;4.63;1.67;;;14.00;99.90;;;;;;5071628;28;20522;-70
2023/10/14 02:38:53;;;;;;;4.60;2.00;;;14.00;99.90;;;;;;5071626;28;20495;-70
2023/10/14 02:41:26;;;;;;;4.23;1.63;;;14.00;99.90;;;;;;5071639;28;20434;-70
2023/10/14 02:44:01;;;;;;;3.57;1.80;;;14.00;99.90;;;;;;5072173;28;20947;-70
2023/10/14 02:46:29;;;;;;;5.20;1.40;;;14.00;99.90;;;;;;5075426;28;20469;-70
2023/10/14 02:49:06;;;;;;;3.67;1.33;;;14.00;99.90;;;;;;5075409;28;20441;-70
2023/10/14 02:51:42;;;;;;;5.13;1.73;;;14.00;99.90;;;;;;5075264;28;20465;-70
2023/10/14 02:54:26;;;;;;;4.30;2.10;;;13.90;99.90;;;;;;5076623;28;20417;-70
2023/10/14 02:56:59;;;;;;;3.47;1.70;;;13.90;99.90;;;;;;5076710;28;20993;-70
2023/10/14 02:59:39;;;;;;;3.00;1.83;;;13.90;99.90;;;;;;5075191;28;20433;-70
2023/10/14 03:02:14;;;;;;;9.80;2.70;;;13.90;99.90;;;;;;5076416;28;20498;-70
2023/10/14 03:05:08;;;;;;;4.47;2.37;;;13.90;99.90;;;;;;5075101;28;20425;-70
2023/10/14 03:07:47;;;;;;;6.57;1.90;;;13.80;99.90;;;;;;5076899;28;20867;-70
2023/10/14 03:10:28;;;;;;;6.70;2.10;;;13.80;99.90;;;;;;5076777;28;20508;-70
2023/10/14 03:12:57;;;;;;;9.87;2.63;;;13.80;99.90;;;;;;5076219;28;20515;-70
2023/10/14 03:15:30;;;;;;;4.57;2.03;;;13.70;99.90;;;;;;5076684;28;20869;-70
2023/10/14 03:18:01;;;;;;;15.40;3.13;;;13.70;99.90;;;;;;5076430;28;20774;-70
2023/10/14 03:20:43;;;;;;;5.70;2.80;;;13.70;99.90;;;;;;5076732;28;20497;-70
2023/10/14 03:23:19;;;;;;;6.53;2.20;;;13.60;99.90;;;;;;5074805;28;20524;-70
2023/10/14 03:25:51;;;;;;;6.17;1.90;;;13.60;99.90;;;;;;5074702;28;20469;-70
2023/10/14 03:28:21;;;;;;;4.70;2.20;;;13.60;99.90;;;;;;5076342;28;20421;-70
2023/10/14 03:30:55;;;;;;;7.30;2.40;;;13.50;99.90;;;;;;5075844;28;20465;-70
2023/10/14 03:33:27;;;;;;;6.93;2.07;;;13.50;99.90;;;;;;5076224;28;20447;-70
2023/10/14 03:36:00;;;;;;;8.67;3.23;;;13.50;99.90;;;;;;5076046;28;20456;-70
2023/10/14 03:38:39;;;;;;;4.53;2.23;;;13.40;99.90;;;;;;5074543;28;20429;-70
2023/10/14 03:41:17;;;;;;;6.83;2.20;;;13.40;99.90;;;;;;5075784;28;20508;-70
2023/10/14 03:43:54;;;;;;;5.53;2.40;;;13.40;99.90;;;;;;5075167;28;20465;-70
2023/10/14 03:46:32;;;;;;;6.07;1.90;;;13.40;99.90;;;;;;5075640;28;20453;-71
2023/10/14 03:49:06;;;;;;;7.57;2.37;;;13.30;99.90;;;;;;5075630;28;20425;-71
2023/10/14 03:51:39;;;;;;;6.80;2.80;;;13.30;99.90;;;;;;5074286;28;20472;-71
2023/10/14 03:54:08;;;;;;;6.73;2.37;;;13.30;99.90;;;;;;5075779;28;20467;-71
2023/10/14 03:56:44;;;;;;;14.77;3.63;;;13.20;99.90;;;;;;5075043;28;20990;-71
2023/10/14 03:59:19;;;;;;;7.10;2.33;;;13.20;99.90;;;;;;5074199;28;20440;-70
2023/10/14 04:01:54;;;;;;;8.23;2.30;;;13.20;99.90;;;;;;5075545;28;20518;-71
2023/10/14 04:04:24;;;;;;;6.57;2.60;;;13.10;99.90;;;;;;5074016;28;20436;-70
2023/10/14 04:07:13;;;;;;;5.87;2.40;;;13.10;99.90;;;;;;5075215;28;20545;-70
2023/10/14 04:09:44;;;;;;;9.23;2.40;;;13.10;99.90;;;;;;5075510;28;20410;-70
2023/10/14 04:12:29;;;;;;;11.07;2.80;;;13.10;99.90;;;;;;5075407;28;20453;-70
2023/10/14 04:15:05;;;;;;;6.87;2.47;;;13.00;99.90;;;;;;5073863;28;20548;-70
2023/10/14 04:17:34;;;;;;;10.43;3.30;;;13.00;99.90;;;;;;5075026;28;20453;-70
2023/10/14 04:20:21;;;;;;;9.03;2.50;;;13.00;99.90;;;;;;5075205;28;20838;-70
2023/10/14 04:22:53;;;;;;;7.30;3.30;;;12.90;99.90;;;;;;5075511;28;20766;-70
2023/10/14 04:25:25;;;;;;;5.03;1.90;;;12.90;99.90;;;;;;5075085;28;20883;-70
2023/10/14 04:30:44;;;;;;;11.17;2.87;;;12.90;99.90;;;;;;5073454;28;20476;-70
2023/10/14 04:33:22;;;;;;;8.60;2.70;;;12.80;99.90;;;;;;5074782;28;20421;-70
2023/10/14 04:36:18;;;;;;;9.17;3.10;;;12.80;99.90;;;;;;5073372;28;20469;-70
2023/10/14 04:39:02;;;;;;;7.03;2.53;;;12.80;99.90;;;;;;5074643;28;20417;-70
2023/10/14 04:41:30;;;;;;;7.57;2.33;;;12.70;99.90;;;;;;5074570;28;20422;-70
2023/10/14 04:44:03;;;;;;;10.10;2.87;;;12.60;99.90;;;;;;5074469;28;20954;-70
2023/10/14 04:46:54;;;;;;;11.43;2.73;;;12.70;99.90;;;;;;5074527;28;20502;-70
2023/10/14 04:52:06;;;;;;;13.83;2.80;;;12.60;99.90;;;;;;5072529;28;20473;-70
2023/10/14 04:54:35;;;;;;;9.07;3.40;;;12.60;99.90;;;;;;5074266;28;20483;-70
2023/10/14 04:57:19;;;;;;;7.07;2.60;;;12.50;99.90;;;;;;5074249;28;20452;-70
2023/10/14 04:59:53;;;;;;;7.57;2.77;;;12.60;99.90;;;;;;5074184;28;20525;-70
2023/10/14 05:02:24;;;;;;;8.93;2.70;;;12.50;99.90;;;;;;5074173;28;20453;-70
2023/10/14 05:04:52;;;;;;;11.80;3.27;;;12.50;99.90;;;;;;5073167;28;20531;-70
2023/10/14 05:07:20;;;;;;;7.60;3.30;;;12.50;99.90;;;;;;5073347;28;20472;-71
2023/10/14 05:09:59;;;;;;;5.07;2.57;;;12.50;99.90;;;;;;5074536;28;20465;-70
2023/10/14 05:12:26;;;;;;;8.73;2.27;;;12.40;99.90;;;;;;5074513;28;20658;-70
2023/10/14 05:14:56;;;;;;;9.30;2.50;;;12.40;99.90;;;;;;5072602;28;20445;-70
2023/10/14 05:17:32;;;;;;;5.63;2.50;;;12.40;99.90;;;;;;5073811;28;20452;-70
2023/10/14 05:20:00;;;;;;;9.30;2.83;;;12.40;99.90;;;;;;5074347;28;20526;-70
2023/10/14 05:22:41;;;;;;;7.50;2.70;;;12.30;99.90;;;;;;5072715;28;20449;-70
2023/10/14 05:25:15;;;;;;;6.63;2.40;;;12.30;99.90;;;;;;5073761;28;20421;-70
2023/10/14 05:27:55;;;;;;;6.83;2.50;;;12.30;99.90;;;;;;5074045;28;20436;-70
2023/10/14 05:30:33;;;;;;;10.20;2.50;;;12.20;99.90;;;;;;5073714;28;20983;-70
2023/10/14 05:33:06;;;;;;;7.30;2.73;;;12.30;99.90;;;;;;5073707;28;20514;-71
2023/10/14 05:35:42;;;;;;;6.13;2.30;;;12.20;99.90;;;;;;5073806;28;20456;-70
2023/10/14 05:38:14;;;;;;;8.27;3.27;;;12.20;99.90;;;;;;5074197;28;20513;-71
2023/10/14 05:40:42;;;;;;;9.67;2.70;;;12.10;99.90;;;;;;5074081;28;20420;-70
2023/10/14 05:43:11;;;;;;;10.43;2.70;;;12.20;99.90;;;;;;5073559;28;20617;-70
2023/10/14 05:45:40;;;;;;;13.07;3.43;;;12.10;99.90;;;;;;5072130;28;20461;-70
2023/10/14 05:48:09;;;;;;;6.63;2.50;;;12.10;99.90;;;;;;5073854;28;20870;-70
2023/10/14 05:50:37;;;;;;;9.10;2.70;;;12.10;99.90;;;;;;5073748;28;20440;-70
2023/10/14 05:53:07;;;;;;;7.03;2.57;;;12.00;99.90;;;;;;5072178;28;20461;-70
2023/10/14 05:55:38;;;;;;;8.40;2.60;;;12.00;99.90;;;;;;5072280;28;20461;-70
2023/10/14 05:58:08;;;;;;;9.97;2.83;;;12.00;99.90;;;;;;5073424;28;20430;-70
2023/10/14 06:00:38;;;;;;;6.67;2.60;;;12.00;99.90;;;;;;5073615;28;20482;-71
2023/10/14 06:03:12;;;;;;;10.20;2.50;;;12.00;99.90;;;;;;5072421;28;20429;-70
2023/10/14 06:05:40;;;;;;;6.27;2.30;;;12.00;99.90;;;;;;5073884;28;20510;-71
2023/10/14 06:08:16;;;;;;;6.50;2.60;;;11.90;99.90;;;;;;5073501;28;20952;-71
2023/10/14 06:10:46;;;;;;;7.10;2.67;;;11.90;99.90;;;;;;5073613;28;20435;-70
2023/10/14 06:13:15;;;;;;;7.70;3.07;;;12.00;99.90;;;;;;5072019;28;20504;-70
2023/10/14 06:15:45;;;;;;;7.73;2.30;;;12.00;99.90;;;;;;5073392;28;20453;-71
2023/10/14 06:18:15;;;;;;;8.00;2.80;;;11.90;99.90;;;;;;5073102;28;20451;-71
2023/10/14 06:20:45;;;;;;;5.23;2.23;;;12.00;99.90;;;;;;5077762;28;20452;-71
2023/10/14 06:23:13;;;;;;;7.60;2.60;;;12.00;99.90;;;;;;5077211;28;20502;-71
2023/10/14 06:25:43;;;;;;;8.63;2.67;;;12.00;99.90;;;;;;5076999;28;21008;-70
2023/10/14 06:28:11;;;;;;;9.90;2.43;;;12.00;99.90;;;;;;5077040;28;20930;-70
2023/10/14 06:30:39;;;;;;;7.10;3.07;;;12.00;99.90;;;;;;5075714;28;20437;-70
2023/10/14 06:33:07;;;;;;;8.40;2.80;;;12.00;99.90;;;;;;5076883;28;20469;-70
2023/10/14 06:35:42;;;;;;;6.93;2.50;;;12.00;99.90;;;;;;5075618;28;20831;-70
2023/10/14 06:38:10;;;;;;;10.93;2.70;;;12.00;99.90;;;;;;5076964;28;20424;-70
2023/10/14 06:40:42;;;;;;;9.80;2.30;;;12.00;99.90;;;;;;5076900;28;20443;-70
2023/10/14 06:43:10;;;;;;;7.67;3.00;;;12.00;99.90;;;;;;5077079;28;20425;-70
2023/10/14 06:45:39;;;;;;;9.03;3.20;;;12.00;99.90;;;;;;5077040;28;20457;-70
2023/10/14 06:48:10;;;;;;;10.73;3.10;;;11.90;99.90;;;;;;5077273;28;20437;-71
2023/10/14 06:50:41;;;;;;;5.93;2.17;;;11.90;99.90;;;;;;5076774;28;20792;-70
2023/10/14 06:53:10;;;;;;;10.63;2.90;;;12.00;99.90;;;;;;5076885;28;20453;-70
2023/10/14 06:55:39;;;;;;;8.80;2.30;;;11.90;99.90;;;;;;5076512;28;20468;-70
2023/10/14 06:58:08;;;;;;;7.73;3.60;;;12.00;99.90;;;;;;5076765;28;20490;-70
2023/10/14 07:00:38;;;;;;;9.63;2.60;;;11.90;99.90;;;;;;5076754;28;20486;-71
2023/10/14 07:03:12;;;;;;;10.33;3.37;;;12.00;99.90;;;;;;5075519;28;20448;-70
2023/10/14 07:05:48;;;;;;;6.30;2.23;;;12.00;99.90;;;;;;5077220;28;20484;-70
2023/10/14 07:08:19;;;;;;;7.93;2.63;;;12.00;99.90;;;;;;5077780;28;20445;-69
2023/10/14 07:10:50;;;;;;;13.10;3.67;;;12.00;99.90;;;;;;5077613;28;20449;-70
2023/10/14 07:13:19;;;;;;;13.73;2.83;;;12.00;99.90;;;;;;5075895;28;20453;-70
2023/10/14 07:15:48;;;;;;;6.87;2.47;;;12.00;99.90;;;;;;5076394;28;20477;-71
2023/10/14 07:18:22;;;;;;;10.17;2.70;;;12.00;99.90;;;;;;5076435;28;20930;-70
2023/10/14 07:20:59;;;;;;;6.07;2.13;;;12.00;99.90;;;;;;5074851;28;20552;-70
2023/10/14 07:23:28;;;;;;;14.47;3.30;;;12.00;99.90;;;;;;5076093;28;20421;-70
2023/10/14 07:25:57;;;;;;;10.13;3.23;;;12.00;99.90;;;;;;5074722;28;20465;-70
2023/10/14 07:28:26;;;;;;;13.53;4.97;;;12.10;99.90;;;;;;5075992;28;20451;-70
2023/10/14 07:30:56;;;;;;;13.53;3.17;;;12.10;99.90;;;;;;5075489;28;20433;-70
2023/10/14 07:33:25;;;;;;;7.50;2.97;;;12.10;99.90;;;;;;5075958;28;20465;-70
2023/10/14 07:35:53;;;;;;;9.87;2.97;;;12.10;99.90;;;;;;5076113;28;20550;-70
2023/10/14 07:38:23;;;;;;;8.80;3.10;;;12.10;99.90;;;;;;5076150;28;20529;-70
2023/10/14 07:40:52;;;;;;;9.50;3.10;;;12.20;99.90;;;;;;5076059;28;20495;-70
2023/10/14 07:43:21;;;;;;;9.20;3.00;;;12.20;99.90;;;;;;5075973;28;20433;-70
2023/10/14 07:45:49;;;;;;;12.43;3.23;;;12.20;99.90;;;;;;5075683;28;20820;-70
2023/10/14 07:48:19;;;;;;;7.97;3.00;;;12.20;99.90;;;;;;5075675;28;20429;-70
2023/10/14 07:50:48;;;;;;;12.23;4.00;;;12.20;99.90;;;;;;5075849;28;20528;-70
2023/10/14 07:53:22;;;;;;;11.77;3.57;;;12.30;99.90;;;;;;5075432;28;20891;-71
2023/10/14 07:55:53;;;;;;;10.87;3.27;;;12.30;99.90;;;;;;5075631;28;20453;-70
2023/10/14 07:58:25;;;;;;;9.70;2.97;;;12.30;99.90;;;;;;5075858;28;20516;-70
2023/10/14 08:00:56;;;;;;;11.43;3.80;;;12.30;99.90;;;;;;5075441;28;20778;-71
2023/10/14 08:03:25;;;;;;;8.03;3.10;;;12.40;99.90;;;;;;5075633;28;20421;-70
2023/10/14 08:05:59;;;;;;;10.37;2.70;;;12.40;99.90;;;;;;5075311;28;20452;-71
2023/10/14 08:08:30;;;;;;;6.13;2.90;;;12.40;99.90;;;;;;5075452;28;20770;-71
2023/10/14 08:11:01;;;;;;;11.50;2.90;;;12.50;99.90;;;;;;5074076;28;20434;-71
2023/10/14 08:13:33;;;;;;;6.80;2.17;;;12.50;99.90;;;;;;5075165;28;20457;-71
2023/10/14 08:16:02;;;;;;;7.30;2.30;;;12.50;99.90;;;;;;5075266;28;20522;-71
2023/10/14 08:18:33;;;;;;;6.63;2.77;;;12.60;99.90;;;;;;5075087;28;20512;-71
2023/10/14 08:21:03;;;;;;;9.80;3.20;;;12.60;99.90;;;;;;5074984;28;20887;-71
2023/10/14 08:23:31;;;;;;;11.93;3.00;;;12.70;99.90;;;;;;5075457;28;20875;-71
2023/10/14 08:26:02;;;;;;;12.70;3.07;;;12.70;99.90;;;;;;5074854;28;20453;-70
2023/10/14 08:28:32;;;;;;;10.80;3.40;;;12.80;99.90;;;;;;5073681;28;20811;-70
2023/10/14 08:31:04;;;;;;;6.10;2.50;;;12.80;99.90;;;;;;5073621;28;20437;-70
2023/10/14 08:33:32;;;;;;;14.00;4.13;;;12.80;99.90;;;;;;5074753;28;20962;-70
2023/10/14 08:36:01;;;;;;;10.40;3.60;;;12.90;99.90;;;;;;5074923;28;20544;-71
2023/10/14 08:38:29;;;;;;;12.93;3.30;;;13.00;99.90;;;;;;5074749;28;20440;-71
2023/10/14 08:40:59;;;;;;;7.10;2.40;;;13.00;99.90;;;;;;5073086;28;20494;-70
2023/10/14 08:43:31;;;;;;;11.17;3.50;;;13.10;99.90;;;;;;5072754;28;20441;-70
2023/10/14 08:46:00;;;;;;;10.30;3.27;;;13.10;99.90;;;;;;5074798;28;20519;-70
2023/10/14 08:48:30;;;;;;;7.80;2.73;;;13.20;99.90;;;;;;5073316;28;20453;-70
2023/10/14 08:50:59;;;;;;;12.10;3.40;;;13.20;99.90;;;;;;5073375;28;20495;-70
2023/10/14 08:53:30;;;;;;;10.20;2.77;;;13.20;99.90;;;;;;5073250;28;20560;-70
2023/10/14 08:55:58;;;;;;;9.03;2.50;;;13.30;99.90;;;;;;5074638;28;20548;-70
2023/10/14 08:58:28;;;;;;;11.90;3.03;;;13.30;99.90;;;;;;5072993;28;20548;-71
2023/10/14 09:00:59;;;;;;;9.17;2.80;;;13.40;99.90;;;;;;5072948;28;20449;-71
2023/10/14 09:03:27;;;;;;;6.60;2.60;;;13.40;99.90;;;;;;5072965;28;20472;-71
2023/10/14 09:05:58;;;;;;;11.97;2.87;;;13.50;99.90;;;;;;5074294;28;20552;-70
2023/10/14 09:08:32;;;;;;;9.00;2.90;;;13.50;99.90;;;;;;5074115;28;20471;-71
2023/10/14 09:11:00;;;;;;;9.47;3.00;;;13.60;99.90;;;;;;5074497;28;20513;-71
2023/10/14 09:13:28;;;;;;;8.03;2.77;;;13.60;99.90;;;;;;5073878;28;20560;-71
2023/10/14 09:15:58;;;;;;;7.13;2.93;;;13.60;99.90;;;;;;5073887;28;20455;-70
2023/10/14 09:18:27;;;;;;;10.23;2.93;;;13.60;99.90;;;;;;5072670;28;20433;-70
2023/10/14 09:21:00;;;;;;;7.43;2.37;;;13.70;99.90;;;;;;5074332;28;20465;-71
2023/10/14 09:23:32;;;;;;;9.40;2.70;;;13.70;99.90;;;;;;5074035;28;20849;-71
2023/10/14 09:26:02;;;;;;;11.37;3.30;;;13.80;99.90;;;;;;5072778;28;20464;-71
2023/10/14 09:28:32;;;;;;;9.33;3.50;;;13.80;99.90;;;;;;5072646;28;20441;-71
2023/10/14 09:31:07;;;;;;;6.50;2.47;;;13.80;99.90;;;;;;5074159;28;20422;-71
2023/10/14 09:33:37;;;;;;;7.77;2.90;;;13.90;99.90;;;;;;5073726;28;20469;-71
2023/10/14 09:36:11;;;;;;;5.07;2.37;;;13.90;99.90;;;;;;5073582;28;20530;-71
2023/10/14 09:38:40;;;;;;;5.30;2.73;;;13.90;99.90;;;;;;5072437;28;20487;-71
2023/10/14 09:41:11;;;;;;;7.83;3.30;;;13.90;99.90;;;;;;5073481;28;20432;-71
2023/10/14 09:43:42;;;;;;;7.30;2.80;;;13.90;99.90;;;;;;5073472;28;20422;-71
2023/10/14 09:46:15;;;;;;;6.07;2.53;;;13.90;99.90;;;;;;5072160;28;20519;-71
2023/10/14 09:48:44;;;;;;;9.07;3.43;;;13.90;99.90;;;;;;5073769;28;20418;-71
2023/10/14 09:51:17;;;;;;;10.43;3.03;;;13.90;99.90;;;;;;5073711;28;20433;-71
2023/10/14 09:53:48;;;;;;;15.27;3.13;;;13.90;99.90;;;;;;5073344;28;20464;-70
2023/10/14 09:56:17;;;;;;;13.03;4.17;;;13.90;99.90;;;;;;5073358;28;20491;-71
2023/10/14 09:59:02;;;;;;;15.83;3.20;;;14.00;99.90;;;;;;5072135;28;20446;-71
2023/10/14 10:01:32;;;;;;;9.33;3.60;;;14.00;99.90;;;;;;5071896;28;20890;-71
2023/10/14 10:04:06;;;;;;;6.40;2.20;;;14.10;99.90;;;;;;5073198;28;20471;-71
2023/10/14 10:06:43;;;;;;;10.30;3.50;;;14.10;99.90;;;;;;5073203;28;20464;-71
2023/10/14 10:09:34;;;;;;;9.37;2.60;;;14.20;99.90;;;;;;5073520;28;20421;-71
2023/10/14 10:12:04;;;;;;;6.93;2.70;;;14.20;99.90;;;;;;5073579;28;20858;-71
2023/10/14 10:14:38;;;;;;;7.53;2.67;;;14.30;99.90;;;;;;5071848;28;20476;-71
2023/10/14 10:17:08;;;;;;;7.60;2.57;;;14.30;99.90;;;;;;5073145;28;20455;-71
2023/10/14 10:20:16;;;;;;;5.07;2.40;;;14.30;99.90;;;;;;5073139;28;20801;-71
2023/10/14 10:22:50;;;;;;;5.00;2.13;;;14.40;99.90;;;;;;5073343;28;20954;-71
2023/10/14 10:25:21;;;;;;;8.00;2.67;;;14.40;99.90;;;;;;5073059;28;20422;-71
2023/10/14 10:27:55;;;;;;;10.53;2.40;;;14.40;99.90;;;;;;5071806;28;20507;-71
2023/10/14 10:30:25;;;;;;;7.00;2.80;;;14.50;99.90;;;;;;5073364;28;20445;-71
2023/10/14 10:33:11;;;;;;;5.83;2.03;;;14.50;99.90;;;;;;5071811;28;20477;-69
2023/10/14 10:35:56;;;;;;;8.00;2.27;;;14.50;99.90;;;;;;5073034;28;20556;-70
2023/10/14 10:38:24;;;;;;;10.90;3.10;;;14.50;99.90;;;;;;5073016;28;20471;-71
2023/10/14 10:41:20;;;;;;;8.47;3.30;;;14.50;99.90;;;;;;5071656;28;20477;-70
2023/10/14 10:43:48;;;;;;;5.93;1.60;;;14.60;99.90;;;;;;5071594;28;20441;-71
2023/10/14 10:46:38;;;;;;;7.10;2.00;;;14.60;99.90;;;;;;5071586;28;20461;-71
2023/10/14 10:49:10;;;;;;;8.27;2.57;;;14.60;99.90;;;;;;5072892;28;20422;-69
2023/10/14 10:51:50;;;;;;;5.73;2.47;;;14.60;99.90;;;;;;5073144;28;20417;-69
2023/10/14 10:54:22;;;;;;;7.90;2.20;;;14.70;99.90;;;;;;5072848;28;20480;-71
2023/10/14 10:56:51;;;;;;;6.10;2.30;;;14.70;99.90;;;;;;5072963;28;20507;-71
2023/10/14 10:59:36;;;;;;;6.27;2.23;;;14.70;99.90;;;;;;5073101;28;20509;-71
2023/10/14 11:02:07;;;;;;;5.30;1.53;;;14.60;99.90;;;;;;5072706;28;20510;-71
2023/10/14 11:04:37;;;;;;;6.20;2.17;;;14.60;99.90;;;;;;5073004;28;20494;-71
2023/10/14 11:07:07;;;;;;;6.80;1.60;;;14.60;99.90;;;;;;5075077;28;20559;-71
2023/10/14 11:09:39;;;;;;;5.10;1.90;;;14.50;99.90;;;;;;5075078;28;20453;-71
2023/10/14 11:12:09;;;;;;;7.40;3.00;;;14.50;99.90;;;;;;5075104;28;20460;-71
2023/10/14 11:14:38;;;;;;;6.07;2.67;;;14.50;99.90;;;;;;5076573;28;20460;-71
2023/10/14 11:17:06;;;;;;;7.50;2.23;;;14.50;99.90;;;;;;5074885;28;20461;-71
2023/10/14 11:19:35;;;;;;;5.50;2.30;;;14.50;99.90;;;;;;5076456;28;20437;-71
2023/10/14 11:22:06;;;;;;;6.00;2.27;;;14.50;99.90;;;;;;5076216;28;20440;-71
2023/10/14 11:24:36;;;;;;;4.10;2.00;;;14.50;99.90;;;;;;5076707;28;20449;-71
2023/10/14 11:27:06;;;;;;;4.70;1.73;;;14.50;99.90;;;;;;5075915;28;20974;-71
2023/10/14 11:29:35;;;;;;;2.20;1.10;;;14.50;99.90;;;;;;5074818;28;20441;-71
2023/10/14 11:32:05;;;;;;;2.83;1.50;;;14.30;99.90;;;;;;5076044;28;20792;-71
2023/10/14 11:34:36;;;;;;;3.90;1.43;;;14.20;99.90;;;;;;5075791;28;20468;-71
2023/10/14 11:37:10;;;;;;;3.90;1.60;;;14.00;99.90;;;;;;5075766;28;20457;-71
2023/10/14 11:39:39;;;;;;;4.30;1.23;;;13.80;99.90;;;;;;5076199;28;20933;-71
2023/10/14 11:42:07;;;;;;;4.13;1.10;;;13.50;99.90;;;;;;5075705;28;20445;-71
2023/10/14 11:44:37;;;;;;;6.40;1.40;;;13.20;99.90;;;;;;5075991;28;20929;-71
2023/10/14 11:47:07;;;;;;;2.83;1.37;;;13.00;99.90;;;;;;5075620;28;20456;-71
2023/10/14 11:49:36;;;;;;;3.27;1.70;;;12.80;99.90;;;;;;5075680;28;20933;-70
2023/10/14 11:52:05;;;;;;;2.60;1.00;;;12.80;99.90;;;;;;5075651;28;20516;-70
2023/10/14 11:54:37;;;;;;;4.97;1.70;;;12.80;99.90;;;;;;5075503;28;20863;-70
2023/10/14 11:57:07;;;;;;;4.10;1.27;;;12.90;99.90;;;;;;5076043;28;20969;-71
2023/10/14 11:59:38;;;;;;;5.20;1.70;;;12.90;99.90;;;;;;5074121;28;20452;-71
2023/10/14 12:02:06;;;;;;;5.47;2.07;;;13.00;99.90;;;;;;5075464;28;20452;-71
2023/10/14 12:04:34;;;;;;;10.03;2.33;;;13.10;99.90;;;;;;5074100;28;20445;-71
2023/10/14 12:07:04;;;;;;;5.10;2.50;;;13.10;99.90;;;;;;5075189;28;20453;-71
2023/10/14 12:09:32;;;;;;;5.30;1.90;;;13.20;99.90;;;;;;5073951;28;20453;-71
2023/10/14 12:12:03;;;;;;;4.57;2.30;;;13.30;99.90;;;;;;5073941;28;20445;-71
2023/10/14 12:14:31;;;;;;;5.20;1.90;;;13.40;99.90;;;;;;5075666;28;20471;-70
2023/10/14 12:17:04;;;;;;;8.13;2.60;;;13.40;99.90;;;;;;5074796;28;20539;-71
2023/10/14 12:19:33;;;;;;;5.60;1.83;;;13.50;99.90;;;;;;5073848;28;20516;-71
2023/10/14 12:22:01;;;;;;;7.27;2.17;;;13.50;99.90;;;;;;5073706;28;20441;-71
2023/10/14 12:24:30;;;;;;;8.83;2.63;;;13.60;99.90;;;;;;5075518;28;20443;-71
2023/10/14 12:26:58;;;;;;;4.23;2.10;;;13.70;99.90;;;;;;5075011;28;20457;-71
2023/10/14 12:29:29;;;;;;;3.73;2.10;;;13.70;99.90;;;;;;5074932;28;20449;-71
2023/10/14 12:31:59;;;;;;;4.57;1.60;;;13.80;99.90;;;;;;5075152;28;20512;-71
2023/10/14 12:34:46;;;;;;;4.77;1.33;;;13.80;99.90;;;;;;5075188;28;20899;-71
2023/10/14 12:37:18;;;;;;;3.50;1.40;;;13.90;99.90;;;;;;5073383;28;20461;-71
2023/10/14 12:39:53;;;;;;;5.93;1.30;;;14.00;99.90;;;;;;5075269;28;20450;-71
2023/10/14 12:42:23;;;;;;;4.70;1.43;;;14.00;99.90;;;;;;5074953;28;20748;-71
2023/10/14 12:44:55;;;;;;;4.53;1.60;;;14.10;99.90;;;;;;5073310;28;20472;-71
2023/10/14 12:47:24;;;;;;;3.73;1.27;;;14.10;99.90;;;;;;5077708;28;20917;-71
2023/10/14 12:49:54;;;;;;;3.60;1.30;;;14.10;99.90;;;;;;5092068;28;20497;-71
2023/10/14 12:52:23;;;;;;;3.27;1.50;;;14.20;99.90;;;;;;5092021;28;20505;-71
2023/10/14 12:54:53;;;;;;;5.20;1.93;;;14.20;99.90;;;;;;5091876;28;20436;-71
2023/10/14 12:57:21;;;;;;;5.00;2.47;;;14.20;99.90;;;;;;5092399;28;20456;-71
2023/10/14 12:59:49;;;;;;;5.20;1.67;;;14.20;99.90;;;;;;5092031;28;20483;-71
2023/10/14 13:02:20;;;;;;;4.93;1.70;;;14.30;99.90;;;;;;5090526;28;20547;-71
2023/10/14 13:04:49;;;;;;;4.43;1.70;;;14.20;99.90;;;;;;5092057;28;20493;-71
2023/10/14 13:07:17;;;;;;;6.03;1.60;;;14.20;99.90;;;;;;5091555;28;20821;-71
2023/10/14 13:09:45;;;;;;;4.10;1.67;;;14.30;99.90;;;;;;5091654;28;20450;-71
2023/10/14 13:12:17;;;;;;;4.70;2.30;;;14.30;99.90;;;;;;5090131;28;20452;-71
2023/10/14 13:14:46;;;;;;;6.43;1.80;;;14.40;99.90;;;;;;5090491;28;20447;-71
2023/10/14 13:17:14;;;;;;;7.00;2.00;;;14.50;99.90;;;;;;5091461;28;20928;-71